createdAt,value
2018-12-09T00:03:20.792Z,8.20
2018-12-09T00:09:24.259Z,8.20
2018-12-09T00:15:27.582Z,8.10
2018-12-09T00:21:30.884Z,8.10
2018-12-09T00:27:34.205Z,8.10
2018-12-09T00:33:37.516Z,8.20
2018-12-09T00:39:40.818Z,8.30
2018-12-09T00:45:44.129Z,8.40
2018-12-09T00:51:47.432Z,8.50
2018-12-09T00:57:50.735Z,8.50
2018-12-09T01:03:54.041Z,8.50
2018-12-09T01:09:57.345Z,8.50
2018-12-09T01:16:00.716Z,8.50
2018-12-09T01:22:04.084Z,8.50
2018-12-09T01:28:07.392Z,8.50
2018-12-09T01:34:10.697Z,8.10
2018-12-09T01:40:14.002Z,7.70
2018-12-09T01:46:17.305Z,7.40
2018-12-09T01:52:21.016Z,7.20
2018-12-09T01:58:24.322Z,7.10
2018-12-09T02:04:27.628Z,7.00
2018-12-09T02:10:30.934Z,7.00
2018-12-09T02:16:34.316Z,7.00
2018-12-09T02:22:37.630Z,7.20
2018-12-09T02:28:40.929Z,7.30
2018-12-09T02:34:50.503Z,7.30
2018-12-09T02:40:53.822Z,7.20
2018-12-09T02:46:57.130Z,7.20
2018-12-09T02:53:00.576Z,7.20
2018-12-09T02:59:04.410Z,7.20
2018-12-09T03:05:08.173Z,7.20
2018-12-09T03:11:11.497Z,7.30
2018-12-09T03:17:14.805Z,7.40
2018-12-09T03:23:18.135Z,7.40
2018-12-09T03:29:21.450Z,7.50
2018-12-09T03:35:24.832Z,7.40
2018-12-09T03:41:28.463Z,7.40
2018-12-09T03:47:31.776Z,7.40
2018-12-09T03:53:35.101Z,7.40
2018-12-09T03:59:38.407Z,7.30
2018-12-09T04:05:41.830Z,7.40
2018-12-09T04:11:45.152Z,7.40
2018-12-09T04:17:48.469Z,7.30
2018-12-09T04:23:51.775Z,7.30
2018-12-09T04:29:55.194Z,7.40
2018-12-09T04:35:58.505Z,7.40
2018-12-09T04:42:01.832Z,7.30
2018-12-09T04:48:05.167Z,7.30
2018-12-09T04:54:08.885Z,7.40
2018-12-09T05:06:54.647Z,7.60
2018-12-09T05:12:57.997Z,7.50
2018-12-09T05:19:01.794Z,7.30
2018-12-09T05:25:05.205Z,7.20
2018-12-09T05:31:08.526Z,7.30
2018-12-09T05:37:11.851Z,7.30
2018-12-09T05:43:15.179Z,7.30
2018-12-09T05:49:18.510Z,7.30
2018-12-09T05:55:21.851Z,7.40
2018-12-09T06:01:25.182Z,7.40
2018-12-09T06:07:28.549Z,7.50
2018-12-09T06:13:32.000Z,7.50
2018-12-09T06:19:35.350Z,7.50
2018-12-09T06:25:38.697Z,7.40
2018-12-09T06:31:42.038Z,7.30
2018-12-09T06:37:45.381Z,7.30
2018-12-09T06:43:48.702Z,7.20
2018-12-09T06:49:52.099Z,7.30
2018-12-09T06:55:55.423Z,7.20
2018-12-09T07:01:58.756Z,7.20
2018-12-09T07:08:02.094Z,7.20
2018-12-09T07:14:05.411Z,7.20
2018-12-09T07:20:08.747Z,7.10
2018-12-09T07:26:12.091Z,7.10
2018-12-09T07:32:15.927Z,7.00
2018-12-09T07:38:19.256Z,7.20
2018-12-09T07:44:22.577Z,7.20
2018-12-09T07:50:25.900Z,7.30
2018-12-09T07:56:29.241Z,7.30
2018-12-09T08:02:32.569Z,7.40
2018-12-09T08:08:36.182Z,7.40
2018-12-09T08:14:39.498Z,7.50
2018-12-09T08:20:42.818Z,7.50
2018-12-09T08:26:46.151Z,7.60
2018-12-09T08:32:49.468Z,7.70
2018-12-09T08:38:52.790Z,7.70
2018-12-09T08:44:56.126Z,7.70
2018-12-09T08:50:59.464Z,7.70
2018-12-09T08:57:02.888Z,7.70
2018-12-09T09:03:06.210Z,7.60
2018-12-09T09:09:09.562Z,7.70
2018-12-09T09:15:12.882Z,7.70
2018-12-09T09:21:16.202Z,7.80
2018-12-09T09:27:19.531Z,7.90
2018-12-09T09:33:22.850Z,7.90
2018-12-09T09:39:26.184Z,7.90
2018-12-09T09:45:29.525Z,7.90
2018-12-09T09:51:32.851Z,7.70
2018-12-09T09:57:36.261Z,7.60
2018-12-09T10:03:39.713Z,7.60
2018-12-09T10:09:43.031Z,7.70
2018-12-09T10:15:46.358Z,7.70
2018-12-09T10:21:49.677Z,7.30
2018-12-09T10:27:53.037Z,6.90
2018-12-09T10:33:56.484Z,6.90
2018-12-09T10:39:59.820Z,7.00
2018-12-09T10:46:03.141Z,7.20
2018-12-09T10:52:06.461Z,7.30
2018-12-09T10:58:09.787Z,7.40
2018-12-09T11:04:13.116Z,7.60
2018-12-09T11:10:16.447Z,7.70
2018-12-09T11:16:19.762Z,7.80
2018-12-09T11:22:23.087Z,7.80
2018-12-09T11:28:26.412Z,7.80
2018-12-09T11:34:29.731Z,7.70
2018-12-09T11:40:33.049Z,7.70
2018-12-09T11:46:36.370Z,7.60
2018-12-09T11:52:39.730Z,7.70
2018-12-09T11:58:43.052Z,7.80
2018-12-09T12:04:46.379Z,7.90
2018-12-09T12:10:49.704Z,7.90
2018-12-09T12:16:53.025Z,7.90
2018-12-09T12:22:56.349Z,7.90
2018-12-09T12:29:00.005Z,7.80
2018-12-09T12:35:03.683Z,7.80
2018-12-09T12:41:07.044Z,7.90
2018-12-09T12:47:10.359Z,7.90
2018-12-09T12:53:13.681Z,7.90
2018-12-09T12:59:17.007Z,7.90
2018-12-09T13:05:20.335Z,7.80
2018-12-09T13:11:23.659Z,7.80
2018-12-09T13:17:27.000Z,7.80
2018-12-09T13:23:30.340Z,7.70
2018-12-09T13:29:33.666Z,7.70
2018-12-09T13:35:36.996Z,7.70
2018-12-09T13:41:40.356Z,7.70
2018-12-09T13:47:43.682Z,7.60
2018-12-09T13:53:47.004Z,7.60
2018-12-09T13:59:50.342Z,7.60
2018-12-09T14:05:53.701Z,7.60
2018-12-09T14:11:57.029Z,7.60
2018-12-09T14:18:00.342Z,7.60
2018-12-09T14:24:03.690Z,7.60
2018-12-09T14:30:07.660Z,7.60
2018-12-09T14:36:10.993Z,7.60
2018-12-09T14:42:14.332Z,7.60
2018-12-09T14:48:17.654Z,7.70
2018-12-09T14:54:20.980Z,7.70
2018-12-09T15:00:24.316Z,7.60
2018-12-09T15:06:27.640Z,7.60
2018-12-09T15:18:45.451Z,7.60
2018-12-09T15:24:48.780Z,7.60
2018-12-09T15:30:52.121Z,7.60
2018-12-09T15:36:55.427Z,7.50
2018-12-09T15:42:58.739Z,7.40
2018-12-09T15:49:02.076Z,7.10
2018-12-09T15:55:05.657Z,6.80
2018-12-09T16:01:08.971Z,6.60
2018-12-09T16:07:12.411Z,6.40
2018-12-09T16:13:15.835Z,6.40
2018-12-09T16:19:19.151Z,6.30
2018-12-09T16:25:22.473Z,6.30
2018-12-09T16:31:25.797Z,6.30
2018-12-09T16:37:29.124Z,6.20
2018-12-09T16:43:32.464Z,6.30
2018-12-09T16:49:35.817Z,6.30
2018-12-09T16:55:39.134Z,6.40
2018-12-09T17:01:42.467Z,6.40
2018-12-09T17:07:45.784Z,6.60
2018-12-09T17:13:49.103Z,6.70
2018-12-09T17:19:52.428Z,6.80
2018-12-09T17:25:55.789Z,6.90
2018-12-09T17:31:59.122Z,6.90
2018-12-09T17:38:02.454Z,7.00
2018-12-09T17:44:06.293Z,6.90
2018-12-09T17:50:09.606Z,6.90
2018-12-09T17:56:12.934Z,7.00
2018-12-09T18:02:16.257Z,6.90
2018-12-09T18:08:19.594Z,6.90
2018-12-09T18:14:22.914Z,6.90
2018-12-09T18:20:26.260Z,6.80
2018-12-09T18:26:29.572Z,6.80
2018-12-09T18:32:32.897Z,6.80
2018-12-09T18:38:36.301Z,6.90
2018-12-09T18:44:39.648Z,6.90
2018-12-09T18:50:42.989Z,6.90
2018-12-09T18:56:46.319Z,6.90
2018-12-09T19:02:49.661Z,6.90
2018-12-09T19:08:53.076Z,6.90
2018-12-09T19:14:56.402Z,6.90
2018-12-09T19:20:59.832Z,6.70
2018-12-09T19:27:03.285Z,6.10
2018-12-09T19:33:06.621Z,5.90
2018-12-09T19:39:09.952Z,5.70
2018-12-09T19:45:13.362Z,5.60
2018-12-09T19:51:16.760Z,5.60
2018-12-09T19:57:20.160Z,5.60
2018-12-09T20:03:23.477Z,5.70
2018-12-09T20:09:26.798Z,5.80
2018-12-09T20:15:30.122Z,6.10
2018-12-09T20:21:33.546Z,6.30
2018-12-09T20:27:37.437Z,6.40
2018-12-09T20:33:40.799Z,6.50
2018-12-09T20:39:44.104Z,6.50
2018-12-09T20:45:47.431Z,6.50
2018-12-09T20:51:50.747Z,6.20
2018-12-09T20:57:54.072Z,5.70
2018-12-09T21:03:57.401Z,5.40
2018-12-09T21:10:00.722Z,5.20
2018-12-09T21:16:04.047Z,5.20
2018-12-09T21:22:07.376Z,5.10
2018-12-09T21:28:10.697Z,5.10
2018-12-09T21:34:14.095Z,5.30
2018-12-09T21:40:17.414Z,5.40
2018-12-09T21:46:20.747Z,5.30
2018-12-09T21:52:24.062Z,5.30
2018-12-09T21:58:27.402Z,5.10
2018-12-09T22:04:30.732Z,5.00
2018-12-09T22:10:34.111Z,5.00
2018-12-09T22:16:37.448Z,5.10
2018-12-09T22:22:40.780Z,5.10
2018-12-09T22:28:44.111Z,5.20
2018-12-09T22:34:47.439Z,5.30
2018-12-09T22:40:50.765Z,5.40
2018-12-09T22:46:54.103Z,5.50
2018-12-09T22:52:57.417Z,5.60
2018-12-09T22:59:00.737Z,5.60
2018-12-09T23:05:04.310Z,5.60
2018-12-09T23:11:07.659Z,5.70
2018-12-09T23:17:10.973Z,5.70
2018-12-09T23:23:14.312Z,5.70
2018-12-09T23:29:17.647Z,5.70
2018-12-09T23:35:20.968Z,5.60
2018-12-09T23:41:24.308Z,5.60
2018-12-09T23:47:27.634Z,5.60
2018-12-09T23:53:30.965Z,5.60
2018-12-09T23:59:34.309Z,5.60
